Time;durP1;ratioP1;P1;durP2;ratioP2;P2;SDS_P1;SDS_P2;PMS_P1;PMS_P2;Temp;Humidity;BMP_temperature;BMP_pressure;BME280_temperature;BME280_humidity;BME280_pressure;Samples;Min_cycle;Max_cycle;Signal;HPM_P1;HPM_P2
2021/07/11 00:02:07;;;;;;;;;;;23.90;46.60;;;;;;8326468;28;19917;-50
2021/07/11 00:06:08;;;;;;;;;;;23.90;46.60;;;;;;8326782;28;19925;-48
2021/07/11 00:10:09;;;;;;;;;;;23.90;46.60;;;;;;8325974;28;19921;-48
2021/07/11 00:14:10;;;;;;;;;;;23.80;46.60;;;;;;8331238;28;20011;-51
2021/07/11 00:18:11;;;;;;;;;;;23.90;46.70;;;;;;8326741;28;19924;-48
2021/07/11 00:22:12;;;;;;;;;;;23.90;46.70;;;;;;8325727;28;19925;-49
2021/07/11 00:26:12;;;;;;;;;;;23.80;46.60;;;;;;8326055;28;20067;-51
2021/07/11 00:30:13;;;;;;;;;;;23.80;46.60;;;;;;8326017;28;19917;-50
2021/07/11 00:34:14;;;;;;;;;;;23.80;46.60;;;;;;8330148;28;19975;-48
2021/07/11 00:38:14;;;;;;;;;;;23.80;46.60;;;;;;8325938;28;19983;-47
2021/07/11 00:42:15;;;;;;;;;;;23.80;46.60;;;;;;8325977;28;20037;-48
2021/07/11 00:46:16;;;;;;;;;;;23.80;46.70;;;;;;8325477;28;19925;-51
2021/07/11 00:50:17;;;;;;;;;;;23.80;46.70;;;;;;8330269;28;19987;-48
2021/07/11 00:54:20;;;;;;;;;;;23.80;46.70;;;;;;8329909;28;19940;-49
2021/07/11 00:58:20;;;;;;;;;;;23.80;46.70;;;;;;8332075;28;20309;-50
2021/07/11 01:02:41;;;;;;;;;;;23.80;46.70;;;;;;8331817;28;20002;-50
2021/07/11 01:06:44;;;;;;;;;;;23.80;46.70;;;;;;8290990;28;19987;-48
2021/07/11 01:10:46;;;;;;;;;;;23.70;46.70;;;;;;8335866;28;19921;-48
2021/07/11 01:14:49;;;;;;;;;;;23.80;46.70;;;;;;8331416;28;19917;-48
2021/07/11 01:18:50;;;;;;;;;;;23.80;46.80;;;;;;8331455;28;19924;-48
2021/07/11 01:22:52;;;;;;;;;;;23.70;46.70;;;;;;8330597;28;19917;-48
2021/07/11 01:26:53;;;;;;;;;;;23.70;46.70;;;;;;8335276;28;19967;-48
2021/07/11 01:30:54;;;;;;;;;;;23.70;46.70;;;;;;8331423;28;20331;-50
2021/07/11 01:35:00;;;;;;;;;;;23.70;46.80;;;;;;8330303;28;19917;-50
2021/07/11 01:39:01;;;;;;;;;;;23.70;46.70;;;;;;8312737;28;19928;-50
2021/07/11 01:43:02;;;;;;;;;;;23.70;46.80;;;;;;8330651;28;19917;-49
2021/07/11 01:47:03;;;;;;;;;;;23.70;46.80;;;;;;8334336;28;19925;-52
2021/07/11 01:51:04;;;;;;;;;;;23.70;46.80;;;;;;8330213;28;19971;-51
2021/07/11 01:55:07;;;;;;;;;;;23.70;46.80;;;;;;8329686;28;19921;-49
2021/07/11 01:59:09;;;;;;;;;;;23.70;46.80;;;;;;8329875;28;19913;-49
2021/07/11 02:03:19;;;;;;;;;;;23.70;46.80;;;;;;8334393;28;20306;-49
2021/07/11 02:07:20;;;;;;;;;;;23.70;46.80;;;;;;8329990;28;19925;-49
2021/07/11 02:11:21;;;;;;;;;;;23.70;46.90;;;;;;8329822;28;20416;-48
2021/07/11 02:15:23;;;;;;;;;;;23.70;46.90;;;;;;8329999;28;19917;-49
2021/07/11 02:19:24;;;;;;;;;;;23.60;46.80;;;;;;8329041;28;19931;-50
2021/07/11 02:23:25;;;;;;;;;;;23.60;46.90;;;;;;8333717;28;19917;-49
2021/07/11 02:27:26;;;;;;;;;;;23.60;46.90;;;;;;8329385;28;19932;-50
2021/07/11 02:31:28;;;;;;;;;;;23.60;46.90;;;;;;8328585;28;19917;-51
2021/07/11 02:35:49;;;;;;;;;;;23.60;46.90;;;;;;8328336;28;19917;-49
2021/07/11 02:39:51;;;;;;;;;;;23.60;46.90;;;;;;8332731;28;20397;-49
2021/07/11 02:43:52;;;;;;;;;;;23.60;46.90;;;;;;8328457;28;20028;-48
2021/07/11 02:47:53;;;;;;;;;;;23.60;46.90;;;;;;8328393;28;19925;-49
2021/07/11 02:51:55;;;;;;;;;;;23.60;46.90;;;;;;8328520;28;19939;-50
2021/07/11 02:55:57;;;;;;;;;;;23.60;46.90;;;;;;8327926;28;19928;-49
2021/07/11 02:59:59;;;;;;;;;;;23.60;47.00;;;;;;8332710;28;19917;-49
2021/07/11 03:03:59;;;;;;;;;;;23.60;47.00;;;;;;8328199;28;19940;-49
2021/07/11 03:08:00;;;;;;;;;;;23.60;47.00;;;;;;8327749;28;19925;-50
2021/07/11 03:12:01;;;;;;;;;;;23.50;47.00;;;;;;8327776;28;19921;-49
2021/07/11 03:16:03;;;;;;;;;;;23.50;47.00;;;;;;8331588;28;19928;-49
2021/07/11 03:20:04;;;;;;;;;;;23.50;47.00;;;;;;8326988;28;19917;-49
2021/07/11 03:24:04;;;;;;;;;;;23.50;47.00;;;;;;8327411;28;20340;-49
2021/07/11 03:28:06;;;;;;;;;;;23.50;47.00;;;;;;8326604;28;20401;-49
2021/07/11 03:32:08;;;;;;;;;;;23.50;47.00;;;;;;8327404;28;19917;-53
2021/07/11 03:36:12;;;;;;;;;;;23.50;47.00;;;;;;8331834;28;19917;-50
2021/07/11 03:40:19;;;;;;;;;;;23.50;47.00;;;;;;8326282;28;19917;-49
2021/07/11 03:44:20;;;;;;;;;;;23.50;47.00;;;;;;8327269;28;20281;-48
2021/07/11 03:48:22;;;;;;;;;;;23.40;47.00;;;;;;8326587;28;19925;-49
2021/07/11 03:52:24;;;;;;;;;;;23.50;47.00;;;;;;8331205;28;19917;-47
2021/07/11 03:56:27;;;;;;;;;;;23.50;47.00;;;;;;8326892;28;20293;-48
2021/07/11 04:00:28;;;;;;;;;;;23.40;47.00;;;;;;8326812;28;20286;-49
2021/07/11 04:04:30;;;;;;;;;;;23.40;47.00;;;;;;8326137;28;19917;-49
2021/07/11 04:08:33;;;;;;;;;;;23.40;47.00;;;;;;8326857;28;19932;-51
2021/07/11 04:12:34;;;;;;;;;;;23.40;47.00;;;;;;8330855;28;19953;-48
2021/07/11 04:16:35;;;;;;;;;;;23.40;47.10;;;;;;8325920;28;20348;-48
2021/07/11 04:20:36;;;;;;;;;;;23.40;47.00;;;;;;8326602;28;20274;-48
2021/07/11 04:24:37;;;;;;;;;;;23.40;47.00;;;;;;8326292;28;19917;-49
2021/07/11 04:28:42;;;;;;;;;;;23.40;47.00;;;;;;8333286;28;19921;-49
2021/07/11 04:32:42;;;;;;;;;;;23.40;47.00;;;;;;8332798;28;19924;-51
2021/07/11 04:36:43;;;;;;;;;;;23.40;47.00;;;;;;8332631;28;20461;-49
2021/07/11 04:40:43;;;;;;;;;;;23.40;47.00;;;;;;8331907;28;20393;-52
2021/07/11 04:44:45;;;;;;;;;;;23.30;47.00;;;;;;8336952;28;19996;-48
2021/07/11 04:48:45;;;;;;;;;;;23.40;47.10;;;;;;8332137;28;19935;-49
2021/07/11 04:52:46;;;;;;;;;;;23.30;47.00;;;;;;8331689;28;19918;-49
2021/07/11 04:56:47;;;;;;;;;;;23.30;47.00;;;;;;8332013;28;19913;-49
2021/07/11 05:00:47;;;;;;;;;;;23.30;47.00;;;;;;8331480;28;19944;-50
2021/07/11 05:04:47;;;;;;;;;;;23.30;47.00;;;;;;8335675;28;19920;-49
2021/07/11 05:08:48;;;;;;;;;;;23.30;47.00;;;;;;8331859;28;20015;-49
2021/07/11 05:12:48;;;;;;;;;;;23.30;47.00;;;;;;8331549;28;19917;-50
2021/07/11 05:16:49;;;;;;;;;;;23.30;47.00;;;;;;8330754;28;19924;-49
2021/07/11 05:20:49;;;;;;;;;;;23.30;47.10;;;;;;8335732;28;20000;-49
2021/07/11 05:24:50;;;;;;;;;;;23.30;47.00;;;;;;8331026;28;20294;-50
2021/07/11 05:28:50;;;;;;;;;;;23.30;47.10;;;;;;8330676;28;20390;-49
2021/07/11 05:32:51;;;;;;;;;;;23.30;47.00;;;;;;8331010;28;19924;-52
2021/07/11 05:36:51;;;;;;;;;;;23.40;46.90;;;;;;8332073;28;20404;-50
2021/07/11 05:40:52;;;;;;;;;;;23.50;46.70;;;;;;8333334;28;19917;-50
2021/07/11 05:44:53;;;;;;;;;;;23.60;46.60;;;;;;8312701;28;19923;-50
2021/07/11 05:48:53;;;;;;;;;;;23.60;46.50;;;;;;8330797;28;19922;-50
2021/07/11 05:52:54;;;;;;;;;;;23.60;46.50;;;;;;8329986;28;20294;-49
2021/07/11 05:56:54;;;;;;;;;;;23.60;46.50;;;;;;8334438;28;20298;-49
2021/07/11 06:00:55;;;;;;;;;;;23.60;46.50;;;;;;8330120;28;19925;-48
2021/07/11 06:04:55;;;;;;;;;;;23.60;46.60;;;;;;8329511;28;20031;-52
2021/07/11 06:08:56;;;;;;;;;;;23.60;46.60;;;;;;8329896;28;19932;-52
2021/07/11 06:12:56;;;;;;;;;;;23.50;46.70;;;;;;8334302;28;19917;-53
2021/07/11 06:16:57;;;;;;;;;;;23.50;46.70;;;;;;8329153;28;20297;-51
2021/07/11 06:20:57;;;;;;;;;;;23.50;46.80;;;;;;8329944;28;19917;-49
2021/07/11 06:24:58;;;;;;;;;;;23.50;46.80;;;;;;8329176;28;19921;-51
2021/07/11 06:28:58;;;;;;;;;;;23.50;46.90;;;;;;8327248;28;19957;-50
2021/07/11 06:32:59;;;;;;;;;;;23.40;46.80;;;;;;8300960;28;19971;-48
2021/07/11 06:36:59;;;;;;;;;;;23.40;46.90;;;;;;8319488;28;19923;-49
2021/07/11 06:40:59;;;;;;;;;;;23.40;46.90;;;;;;8328280;28;19925;-48
2021/07/11 06:45:01;;;;;;;;;;;23.40;46.90;;;;;;8328622;28;19917;-48
2021/07/11 06:49:02;;;;;;;;;;;23.40;47.00;;;;;;8332830;28;19929;-48
2021/07/11 06:53:02;;;;;;;;;;;23.40;47.00;;;;;;8327163;28;19971;-48
2021/07/11 06:57:03;;;;;;;;;;;23.40;47.00;;;;;;8328534;28;19924;-50
2021/07/11 07:01:03;;;;;;;;;;;23.40;47.00;;;;;;8319462;28;19924;-50
2021/07/11 07:05:05;;;;;;;;;;;23.40;47.00;;;;;;8299299;28;20020;-47
2021/07/11 07:09:05;;;;;;;;;;;23.40;47.00;;;;;;8327084;28;19936;-51
2021/07/11 07:13:06;;;;;;;;;;;23.40;47.00;;;;;;8327726;28;19917;-49
2021/07/11 07:17:06;;;;;;;;;;;23.40;47.00;;;;;;8327962;28;19917;-47
2021/07/11 07:21:07;;;;;;;;;;;23.40;47.00;;;;;;8327523;28;19925;-48
2021/07/11 07:25:08;;;;;;;;;;;23.40;47.00;;;;;;8331800;28;19917;-50
2021/07/11 07:29:09;;;;;;;;;;;23.40;47.00;;;;;;8327253;28;20021;-50
2021/07/11 07:33:10;;;;;;;;;;;23.40;47.00;;;;;;8327323;28;19917;-50
2021/07/11 07:37:10;;;;;;;;;;;23.40;47.00;;;;;;8326736;28;19923;-49
2021/07/11 07:41:11;;;;;;;;;;;23.40;47.00;;;;;;8330562;28;19917;-49
2021/07/11 07:45:12;;;;;;;;;;;23.50;47.00;;;;;;8325794;28;19924;-50
2021/07/11 07:49:12;;;;;;;;;;;23.40;47.00;;;;;;8325231;28;19913;-49
2021/07/11 07:53:12;;;;;;;;;;;23.50;47.10;;;;;;8325424;28;20322;-48
2021/07/11 07:57:15;;;;;;;;;;;23.50;47.10;;;;;;8328716;28;20367;-50
2021/07/11 08:01:16;;;;;;;;;;;23.50;47.10;;;;;;8295864;28;20326;-50
2021/07/11 08:05:16;;;;;;;;;;;23.50;47.00;;;;;;8315597;28;20040;-48
2021/07/11 08:09:17;;;;;;;;;;;23.50;47.00;;;;;;8324475;28;19968;-48
2021/07/11 08:13:18;;;;;;;;;;;23.50;47.00;;;;;;8320751;28;19928;-49
2021/07/11 08:17:18;;;;;;;;;;;23.50;47.00;;;;;;8296979;28;19918;-50
2021/07/11 08:21:19;;;;;;;;;;;23.60;47.00;;;;;;8319401;28;19917;-48
2021/07/11 08:25:19;;;;;;;;;;;23.50;47.00;;;;;;8324285;28;19924;-48
2021/07/11 08:29:20;;;;;;;;;;;23.60;46.90;;;;;;8325409;28;19913;-49
2021/07/11 08:33:20;;;;;;;;;;;23.60;46.90;;;;;;8330866;28;19917;-49
2021/07/11 08:37:20;;;;;;;;;;;23.60;46.90;;;;;;8325771;28;19924;-49
2021/07/11 08:41:21;;;;;;;;;;;23.60;46.90;;;;;;8305611;28;20326;-49
2021/07/11 08:45:22;;;;;;;;;;;23.60;46.90;;;;;;8293416;28;20279;-50
2021/07/11 08:49:23;;;;;;;;;;;23.60;46.90;;;;;;8294154;28;19917;-52
2021/07/11 08:53:23;;;;;;;;;;;23.70;46.90;;;;;;8330528;28;19928;-48
2021/07/11 08:57:24;;;;;;;;;;;23.70;46.90;;;;;;8325808;28;20363;-51
2021/07/11 09:01:28;;;;;;;;;;;23.70;46.90;;;;;;8325138;28;19924;-50
2021/07/11 09:05:29;;;;;;;;;;;23.70;46.80;;;;;;8325228;28;20294;-52
2021/07/11 09:09:34;;;;;;;;;;;23.70;46.80;;;;;;8330248;28;20004;-49
2021/07/11 09:13:34;;;;;;;;;;;23.70;46.80;;;;;;8326118;28;20001;-50
2021/07/11 09:17:35;;;;;;;;;;;23.70;46.80;;;;;;8331667;28;19921;-50
2021/07/11 09:21:35;;;;;;;;;;;23.80;46.90;;;;;;8322648;28;19921;-49
2021/07/11 09:25:35;;;;;;;;;;;23.80;46.90;;;;;;8302508;28;19961;-49
2021/07/11 09:29:37;;;;;;;;;;;23.80;46.90;;;;;;8331153;28;19917;-51
2021/07/11 09:33:38;;;;;;;;;;;23.80;46.90;;;;;;8330821;28;19917;-50
2021/07/11 09:37:40;;;;;;;;;;;23.80;46.90;;;;;;8330338;28;19925;-49
2021/07/11 09:41:40;;;;;;;;;;;23.80;46.80;;;;;;8330599;28;20023;-49
2021/07/11 09:45:41;;;;;;;;;;;23.90;46.90;;;;;;8334868;28;19925;-49
2021/07/11 09:49:42;;;;;;;;;;;23.90;46.90;;;;;;8329978;28;19928;-49
2021/07/11 09:53:43;;;;;;;;;;;23.90;46.90;;;;;;8330192;28;19917;-49
2021/07/11 09:57:45;;;;;;;;;;;23.90;46.90;;;;;;8330647;28;19941;-49
2021/07/11 10:01:46;;;;;;;;;;;23.90;46.90;;;;;;8334202;28;20419;-50
2021/07/11 10:05:46;;;;;;;;;;;24.00;46.90;;;;;;8330368;28;19925;-51
2021/07/11 10:09:47;;;;;;;;;;;24.00;46.90;;;;;;8329691;28;20266;-49
2021/07/11 10:13:48;;;;;;;;;;;24.00;46.90;;;;;;8329106;28;19921;-49
2021/07/11 10:17:50;;;;;;;;;;;24.00;46.80;;;;;;8329752;28;19917;-49
2021/07/11 10:21:50;;;;;;;;;;;24.10;46.80;;;;;;8334106;28;19925;-48
2021/07/11 10:26:01;;;;;;;;;;;24.10;46.80;;;;;;8328869;28;20401;-50
2021/07/11 10:30:01;;;;;;;;;;;24.10;46.70;;;;;;8329503;28;19929;-48
2021/07/11 10:34:02;;;;;;;;;;;24.10;46.60;;;;;;8329032;28;20011;-49
2021/07/11 10:38:02;;;;;;;;;;;24.10;46.60;;;;;;8332912;28;20370;-49
2021/07/11 10:42:03;;;;;;;;;;;24.10;46.60;;;;;;8328426;28;19923;-49
2021/07/11 10:46:03;;;;;;;;;;;24.20;46.60;;;;;;8328611;28;20444;-48
2021/07/11 10:50:08;;;;;;;;;;;24.20;46.60;;;;;;8328027;28;19918;-50
2021/07/11 10:54:19;;;;;;;;;;;24.20;46.60;;;;;;8329634;28;19917;-49
2021/07/11 10:58:19;;;;;;;;;;;24.20;46.50;;;;;;8299675;28;20390;-48
2021/07/11 11:02:23;;;;;;;;;;;24.20;46.50;;;;;;8320763;28;20024;-49
2021/07/11 11:06:23;;;;;;;;;;;24.30;46.60;;;;;;8328471;28;19982;-49
2021/07/11 11:10:24;;;;;;;;;;;24.30;46.60;;;;;;8327497;28;19924;-48
2021/07/11 11:14:26;;;;;;;;;;;24.30;46.50;;;;;;8332415;28;19917;-48
2021/07/11 11:18:30;;;;;;;;;;;24.30;46.50;;;;;;8327635;28;19921;-51
2021/07/11 11:22:30;;;;;;;;;;;24.30;46.40;;;;;;8327793;28;19971;-48
2021/07/11 11:26:31;;;;;;;;;;;24.30;46.40;;;;;;8327476;28;20386;-49
2021/07/11 11:30:31;;;;;;;;;;;24.30;46.30;;;;;;8328440;28;19917;-51
2021/07/11 11:34:32;;;;;;;;;;;24.30;46.30;;;;;;8330214;28;19940;-50
2021/07/11 11:38:39;;;;;;;;;;;24.40;46.20;;;;;;8304498;28;19925;-49
2021/07/11 11:42:47;;;;;;;;;;;24.30;46.20;;;;;;8309157;28;20063;-50
2021/07/11 11:46:49;;;;;;;;;;;24.40;46.10;;;;;;8326270;28;20008;-48
2021/07/11 11:50:49;;;;;;;;;;;24.50;46.10;;;;;;8331458;28;20000;-48
2021/07/11 11:54:50;;;;;;;;;;;24.50;46.10;;;;;;8326831;28;20251;-48
2021/07/11 11:59:00;;;;;;;;;;;24.50;46.10;;;;;;8326223;28;19964;-47
2021/07/11 12:03:02;;;;;;;;;;;24.50;46.00;;;;;;8327020;28;20301;-49
2021/07/11 12:07:03;;;;;;;;;;;24.50;45.90;;;;;;8327057;28;19925;-51
2021/07/11 12:11:05;;;;;;;;;;;24.50;45.90;;;;;;8330407;28;20020;-47
2021/07/11 12:15:05;;;;;;;;;;;24.60;45.90;;;;;;8326631;28;19925;-48
2021/07/11 12:19:07;;;;;;;;;;;24.60;45.90;;;;;;8325755;28;20298;-50
2021/07/11 12:23:11;;;;;;;;;;;24.60;45.80;;;;;;8325643;28;19917;-50
2021/07/11 12:27:12;;;;;;;;;;;24.60;45.80;;;;;;8330664;28;19925;-49
2021/07/11 12:31:20;;;;;;;;;;;24.60;45.80;;;;;;8325694;28;19917;-50
2021/07/11 12:35:22;;;;;;;;;;;24.70;45.80;;;;;;8326302;28;19917;-49
2021/07/11 12:39:24;;;;;;;;;;;24.60;45.70;;;;;;8326239;28;19924;-48
2021/07/11 12:43:32;;;;;;;;;;;24.70;45.80;;;;;;8325771;28;19924;-49
2021/07/11 12:47:32;;;;;;;;;;;24.70;45.60;;;;;;8330586;28;20397;-51
2021/07/11 12:51:36;;;;;;;;;;;24.70;45.60;;;;;;8314357;28;19971;-48
2021/07/11 12:55:37;;;;;;;;;;;24.80;45.60;;;;;;8331557;28;19925;-50
2021/07/11 12:59:38;;;;;;;;;;;24.80;45.50;;;;;;8331514;28;20400;-52
2021/07/11 13:03:39;;;;;;;;;;;24.80;45.50;;;;;;8336267;28;19918;-46
2021/07/11 13:07:40;;;;;;;;;;;24.80;45.50;;;;;;8303000;28;20366;-48
2021/07/11 13:11:41;;;;;;;;;;;24.80;45.60;;;;;;8318731;28;20004;-49
2021/07/11 13:15:41;;;;;;;;;;;24.80;45.50;;;;;;8331395;28;19981;-49
2021/07/11 13:19:42;;;;;;;;;;;24.80;45.30;;;;;;8332955;28;19928;-50
2021/07/11 13:23:42;;;;;;;;;;;24.80;45.10;;;;;;8333645;28;20062;-50
2021/07/11 13:27:43;;;;;;;;;;;24.80;45.10;;;;;;8331029;28;20344;-49
2021/07/11 13:31:43;;;;;;;;;;;24.90;45.30;;;;;;8330586;28;19995;-48
2021/07/11 13:35:47;;;;;;;;;;;24.80;44.90;;;;;;8330944;28;19924;-49
2021/07/11 13:39:47;;;;;;;;;;;24.90;45.20;;;;;;8335448;28;20127;-48
2021/07/11 13:43:48;;;;;;;;;;;24.90;45.00;;;;;;8330273;28;20378;-48
2021/07/11 13:47:48;;;;;;;;;;;24.90;45.20;;;;;;8330564;28;20389;-48
2021/07/11 13:51:49;;;;;;;;;;;24.90;45.20;;;;;;8330385;28;19917;-48
2021/07/11 13:55:49;;;;;;;;;;;24.90;45.00;;;;;;8334352;28;19971;-48
2021/07/11 13:59:50;;;;;;;;;;;24.90;44.80;;;;;;8329695;28;19917;-49
2021/07/11 14:03:50;;;;;;;;;;;25.00;45.10;;;;;;8330145;28;19913;-50
2021/07/11 14:07:51;;;;;;;;;;;25.00;45.20;;;;;;8329876;28;19925;-49
2021/07/11 14:11:51;;;;;;;;;;;25.00;45.00;;;;;;8311989;28;19940;-47
2021/07/11 14:15:52;;;;;;;;;;;25.00;45.20;;;;;;8334117;28;19979;-48
2021/07/11 14:19:53;;;;;;;;;;;25.00;45.00;;;;;;8328761;28;19921;-49
2021/07/11 14:23:54;;;;;;;;;;;25.00;45.20;;;;;;8329552;28;20273;-47
2021/07/11 14:27:55;;;;;;;;;;;25.00;45.10;;;;;;8329383;28;19924;-48
2021/07/11 14:31:55;;;;;;;;;;;25.00;45.10;;;;;;8333312;28;20063;-48
2021/07/11 14:35:56;;;;;;;;;;;25.00;44.90;;;;;;8329280;28;19923;-49
2021/07/11 14:39:56;;;;;;;;;;;25.00;44.60;;;;;;8328830;28;20386;-49
2021/07/11 14:43:57;;;;;;;;;;;25.00;44.80;;;;;;8328334;28;20032;-48
2021/07/11 14:47:57;;;;;;;;;;;25.00;44.70;;;;;;8333250;28;19932;-48
2021/07/11 14:51:58;;;;;;;;;;;25.10;44.90;;;;;;8328534;28;20390;-49
2021/07/11 14:55:59;;;;;;;;;;;25.10;45.00;;;;;;8327853;28;19956;-48
2021/07/11 14:59:59;;;;;;;;;;;25.10;45.10;;;;;;8328557;28;20020;-48
2021/07/11 15:03:59;;;;;;;;;;;25.10;45.00;;;;;;8326630;28;20294;-49
2021/07/11 15:08:00;;;;;;;;;;;25.10;44.90;;;;;;8300247;28;20390;-48
2021/07/11 15:12:01;;;;;;;;;;;25.10;44.80;;;;;;8320134;28;20370;-49
2021/07/11 15:16:02;;;;;;;;;;;25.10;44.90;;;;;;8327870;28;19928;-48
2021/07/11 15:20:04;;;;;;;;;;;25.10;44.80;;;;;;8327086;28;19922;-49
2021/07/11 15:24:05;;;;;;;;;;;25.10;44.70;;;;;;8332286;28;19962;-49
2021/07/11 15:28:05;;;;;;;;;;;25.10;44.70;;;;;;8326839;28;19929;-51
2021/07/11 15:32:06;;;;;;;;;;;25.10;44.70;;;;;;8309351;28;20366;-49
2021/07/11 15:36:09;;;;;;;;;;;25.10;44.60;;;;;;8304459;28;19917;-51
2021/07/11 15:40:11;;;;;;;;;;;25.10;44.80;;;;;;8327681;28;19925;-51
2021/07/11 15:44:12;;;;;;;;;;;25.10;44.40;;;;;;8330792;28;20290;-52
2021/07/11 15:48:14;;;;;;;;;;;25.10;44.80;;;;;;8327186;28;19925;-52
2021/07/11 15:52:14;;;;;;;;;;;25.10;44.80;;;;;;8326632;28;20063;-52
2021/07/11 15:56:15;;;;;;;;;;;25.10;44.90;;;;;;8323314;28;19921;-49
2021/07/11 16:00:16;;;;;;;;;;;25.10;44.70;;;;;;8298428;28;19926;-48
2021/07/11 16:04:16;;;;;;;;;;;25.10;44.60;;;;;;8321024;28;19924;-48
2021/07/11 16:08:17;;;;;;;;;;;25.10;44.60;;;;;;8326363;28;19925;-48
2021/07/11 16:12:17;;;;;;;;;;;25.10;44.70;;;;;;8326967;28;19948;-49
2021/07/11 16:16:18;;;;;;;;;;;25.10;44.40;;;;;;8330521;28;19921;-49
2021/07/11 16:20:18;;;;;;;;;;;25.10;44.70;;;;;;8326568;28;20297;-53
2021/07/11 16:24:19;;;;;;;;;;;25.10;44.80;;;;;;8310434;28;19964;-48
2021/07/11 16:28:19;;;;;;;;;;;25.10;45.10;;;;;;8311838;28;19952;-49
2021/07/11 16:32:20;;;;;;;;;;;25.10;44.30;;;;;;8333075;28;19967;-50
2021/07/11 16:36:20;;;;;;;;;;;25.10;44.70;;;;;;8337300;28;19917;-52
2021/07/11 16:40:21;;;;;;;;;;;25.10;44.50;;;;;;8332481;28;19932;-49
2021/07/11 16:44:21;;;;;;;;;;;25.10;44.30;;;;;;8332913;28;20307;-52
2021/07/11 16:48:22;;;;;;;;;;;25.10;44.00;;;;;;8332541;28;20016;-49
2021/07/11 16:52:22;;;;;;;;;;;25.10;44.00;;;;;;8336464;28;19917;-49
2021/07/11 16:56:23;;;;;;;;;;;25.10;44.60;;;;;;8332649;28;20378;-49
2021/07/11 17:00:23;;;;;;;;;;;25.10;44.10;;;;;;8332102;28;20405;-47
2021/07/11 17:04:24;;;;;;;;;;;25.10;44.00;;;;;;8331634;28;20294;-48
2021/07/11 17:08:24;;;;;;;;;;;25.10;44.10;;;;;;8336241;28;20405;-49
2021/07/11 17:12:27;;;;;;;;;;;25.10;44.60;;;;;;8331786;28;19918;-48
2021/07/11 17:16:27;;;;;;;;;;;25.10;44.30;;;;;;8331214;28;20372;-49
2021/07/11 17:20:28;;;;;;;;;;;25.10;44.60;;;;;;8331781;28;20011;-49
2021/07/11 17:24:28;;;;;;;;;;;25.10;44.50;;;;;;8331325;28;20302;-47
2021/07/11 17:28:29;;;;;;;;;;;25.10;44.60;;;;;;8317504;28;20472;-47
2021/07/11 17:32:29;;;;;;;;;;;25.10;44.60;;;;;;8331265;28;19917;-49
2021/07/11 17:36:30;;;;;;;;;;;25.00;44.60;;;;;;8330178;28;19917;-50
2021/07/11 17:40:31;;;;;;;;;;;25.10;44.60;;;;;;8324988;28;19917;-48
2021/07/11 17:44:31;;;;;;;;;;;25.10;44.70;;;;;;8302467;28;20001;-48
2021/07/11 17:48:32;;;;;;;;;;;25.10;44.80;;;;;;8327510;28;19933;-49
2021/07/11 17:52:33;;;;;;;;;;;25.10;44.60;;;;;;8330154;28;20393;-49
2021/07/11 17:56:33;;;;;;;;;;;25.00;45.30;;;;;;8330504;28;19917;-48
2021/07/11 18:00:34;;;;;;;;;;;25.10;44.80;;;;;;8332345;28;19917;-52
2021/07/11 18:04:34;;;;;;;;;;;25.00;44.90;;;;;;8332382;28;19917;-48
2021/07/11 18:08:35;;;;;;;;;;;25.00;45.00;;;;;;8330488;28;19979;-48
2021/07/11 18:12:35;;;;;;;;;;;25.10;45.00;;;;;;8330073;28;19917;-49
2021/07/11 18:16:36;;;;;;;;;;;25.00;45.20;;;;;;8329429;28;19971;-49
2021/07/11 18:20:36;;;;;;;;;;;25.00;45.00;;;;;;8334146;28;19924;-47
2021/07/11 18:24:37;;;;;;;;;;;25.00;45.20;;;;;;8329559;28;19917;-48
2021/07/11 18:28:37;;;;;;;;;;;25.00;45.20;;;;;;8328640;28;19925;-50
2021/07/11 18:32:38;;;;;;;;;;;25.00;45.30;;;;;;8328868;28;19924;-51
2021/07/11 18:36:39;;;;;;;;;;;25.00;45.30;;;;;;8333706;28;19935;-50
2021/07/11 18:40:40;;;;;;;;;;;25.00;45.50;;;;;;8328739;28;19941;-47
2021/07/11 18:44:41;;;;;;;;;;;25.00;46.20;;;;;;8329037;28;19917;-50
2021/07/11 18:48:42;;;;;;;;;;;25.00;45.80;;;;;;8327518;28;19992;-45
2021/07/11 18:52:44;;;;;;;;;;;24.90;45.70;;;;;;8330188;28;19928;-49
2021/07/11 18:56:45;;;;;;;;;;;25.00;45.60;;;;;;8333305;28;20378;-48
2021/07/11 19:00:49;;;;;;;;;;;25.00;45.50;;;;;;8306594;28;19929;-48
2021/07/11 19:04:49;;;;;;;;;;;24.90;45.50;;;;;;8311201;28;19925;-53
2021/07/11 19:08:49;;;;;;;;;;;24.90;45.60;;;;;;8328093;28;20020;-49
2021/07/11 19:12:50;;;;;;;;;;;24.90;45.60;;;;;;8332675;28;19917;-50
2021/07/11 19:16:51;;;;;;;;;;;24.90;45.60;;;;;;8327762;28;19971;-48
2021/07/11 19:20:51;;;;;;;;;;;24.90;45.60;;;;;;8327821;28;19917;-52
2021/07/11 19:24:52;;;;;;;;;;;24.90;45.60;;;;;;8310051;28;20011;-50
2021/07/11 19:28:52;;;;;;;;;;;24.80;45.60;;;;;;8331600;28;20008;-49
2021/07/11 19:32:55;;;;;;;;;;;24.90;45.60;;;;;;8327528;28;19917;-50
2021/07/11 19:36:55;;;;;;;;;;;24.80;45.50;;;;;;8327245;28;19959;-48
2021/07/11 19:40:57;;;;;;;;;;;24.80;45.60;;;;;;8326829;28;20344;-50
2021/07/11 19:44:57;;;;;;;;;;;24.80;45.60;;;;;;8327385;28;19928;-49
2021/07/11 19:48:58;;;;;;;;;;;24.80;45.60;;;;;;8331397;28;20382;-48
2021/07/11 19:52:58;;;;;;;;;;;24.80;45.50;;;;;;8301088;28;20027;-48
2021/07/11 19:56:59;;;;;;;;;;;24.80;45.60;;;;;;8310459;28;20012;-48
2021/07/11 20:00:59;;;;;;;;;;;24.80;45.60;;;;;;8326884;28;19917;-49
2021/07/11 20:05:00;;;;;;;;;;;24.80;45.70;;;;;;8330867;28;19924;-50
2021/07/11 20:09:05;;;;;;;;;;;24.80;45.70;;;;;;8325682;28;21444;-49
2021/07/11 20:13:05;;;;;;;;;;;24.80;45.80;;;;;;8326061;28;19985;-50
2021/07/11 20:17:06;;;;;;;;;;;24.80;45.90;;;;;;8326328;28;20023;-50
2021/07/11 20:21:06;;;;;;;;;;;24.80;45.90;;;;;;8326641;28;20388;-52
2021/07/11 20:25:08;;;;;;;;;;;24.70;45.80;;;;;;8330381;28;19917;-51
2021/07/11 20:29:09;;;;;;;;;;;24.70;45.80;;;;;;8326173;28;20298;-49
2021/07/11 20:33:10;;;;;;;;;;;24.70;45.80;;;;;;8324562;28;19954;-48
2021/07/11 20:37:10;;;;;;;;;;;24.70;45.80;;;;;;8325660;28;19917;-51
2021/07/11 20:41:11;;;;;;;;;;;24.70;45.90;;;;;;8330742;28;19924;-48
2021/07/11 20:45:12;;;;;;;;;;;24.70;45.80;;;;;;8298971;28;20004;-48
2021/07/11 20:53:57;;;;;;;;;;;24.70;45.80;;;;;;8298907;28;20457;-50
2021/07/11 20:58:01;;;;;;;;;;;24.70;45.80;;;;;;8297989;28;19917;-51
2021/07/11 21:02:02;;;;;;;;;;;24.70;45.80;;;;;;8329717;28;19921;-50
2021/07/11 21:06:02;;;;;;;;;;;24.70;45.70;;;;;;8326289;28;20024;-49
2021/07/11 21:10:03;;;;;;;;;;;24.70;45.80;;;;;;8309387;28;19918;-51
2021/07/11 21:14:03;;;;;;;;;;;24.70;45.80;;;;;;8289553;28;20278;-48
2021/07/11 21:18:04;;;;;;;;;;;24.70;45.80;;;;;;8336112;28;20282;-48
2021/07/11 21:22:04;;;;;;;;;;;24.70;45.80;;;;;;8331033;28;19949;-48
2021/07/11 21:26:05;;;;;;;;;;;24.70;45.80;;;;;;8331607;28;19929;-48
2021/07/11 21:30:06;;;;;;;;;;;24.70;45.80;;;;;;8331214;28;19963;-51
2021/07/11 21:34:06;;;;;;;;;;;24.70;45.80;;;;;;8330729;28;21843;-48
2021/07/11 21:38:07;;;;;;;;;;;24.60;45.80;;;;;;8335641;28;20293;-48
2021/07/11 21:42:07;;;;;;;;;;;24.70;45.80;;;;;;8330985;28;19921;-49
2021/07/11 21:46:08;;;;;;;;;;;24.70;45.80;;;;;;8330627;28;19925;-48
2021/07/11 21:50:08;;;;;;;;;;;24.60;45.80;;;;;;8330788;28;19922;-49
2021/07/11 21:54:09;;;;;;;;;;;24.60;45.80;;;;;;8335087;28;20393;-49
2021/07/11 21:58:10;;;;;;;;;;;24.60;45.80;;;;;;8329891;28;20428;-48
2021/07/11 22:02:10;;;;;;;;;;;24.60;45.80;;;;;;8329502;28;20000;-50
2021/07/11 22:06:11;;;;;;;;;;;24.60;45.70;;;;;;8329904;28;19925;-49
2021/07/11 22:10:13;;;;;;;;;;;24.60;45.60;;;;;;8331683;28;20016;-49
2021/07/11 22:14:14;;;;;;;;;;;24.60;45.70;;;;;;8333095;28;19917;-47
2021/07/11 22:18:14;;;;;;;;;;;24.60;45.70;;;;;;8329715;28;20298;-48
2021/07/11 22:22:15;;;;;;;;;;;24.60;45.70;;;;;;8329023;28;20378;-48
2021/07/11 22:26:15;;;;;;;;;;;24.60;45.70;;;;;;8325848;28;19930;-48
2021/07/11 22:30:16;;;;;;;;;;;24.60;45.70;;;;;;8301251;28;20379;-49
2021/07/11 22:34:17;;;;;;;;;;;24.60;45.70;;;;;;8322882;28;19917;-49
2021/07/11 22:38:17;;;;;;;;;;;24.60;45.60;;;;;;8329040;28;20008;-48
2021/07/11 22:42:18;;;;;;;;;;;24.60;45.60;;;;;;8329059;28;19913;-47
2021/07/11 22:46:18;;;;;;;;;;;24.60;45.60;;;;;;8333020;28;19925;-48
2021/07/11 22:50:19;;;;;;;;;;;24.60;45.60;;;;;;8328571;28;20393;-49
2021/07/11 22:54:19;;;;;;;;;;;24.60;45.70;;;;;;8328605;28;20000;-48
2021/07/11 22:58:20;;;;;;;;;;;24.60;45.70;;;;;;8327953;28;20362;-48
2021/07/11 23:02:21;;;;;;;;;;;24.60;45.70;;;;;;8328323;28;20275;-49
2021/07/11 23:06:21;;;;;;;;;;;24.50;45.70;;;;;;8332820;28;19925;-47
2021/07/11 23:10:22;;;;;;;;;;;24.50;45.70;;;;;;8327976;28;19924;-49
2021/07/11 23:14:22;;;;;;;;;;;24.50;45.80;;;;;;8328223;28;19917;-47
2021/07/11 23:18:23;;;;;;;;;;;24.50;45.80;;;;;;8323618;28;19921;-48
2021/07/11 23:22:23;;;;;;;;;;;24.50;45.70;;;;;;8299329;28;19928;-48
2021/07/11 23:26:24;;;;;;;;;;;24.50;45.70;;;;;;8322665;28;19925;-47